sensor_id;sensor_type;location;lat;lon;timestamp;temperature;humidity
71627;DHT22;59475;52.464;13.590;2023-03-01T00:02:06;-3.96;88.04
71627;DHT22;59475;52.464;13.590;2023-03-01T00:04:32;-4.00;88.05
71627;DHT22;59475;52.464;13.590;2023-03-01T00:06:57;-4.04;88.19
71627;DHT22;59475;52.464;13.590;2023-03-01T00:09:23;-4.07;88.44
71627;DHT22;59475;52.464;13.590;2023-03-01T00:11:48;-4.07;88.76
71627;DHT22;59475;52.464;13.590;2023-03-01T00:14:14;-4.07;89.06
71627;DHT22;59475;52.464;13.590;2023-03-01T00:16:43;-4.10;89.46
71627;DHT22;59475;52.464;13.590;2023-03-01T00:19:15;-4.15;89.97
71627;DHT22;59475;52.464;13.590;2023-03-01T00:21:40;-4.17;89.61
71627;DHT22;59475;52.464;13.590;2023-03-01T00:24:06;-4.15;89.53
71627;DHT22;59475;52.464;13.590;2023-03-01T00:26:32;-4.20;89.78
71627;DHT22;59475;52.464;13.590;2023-03-01T00:28:58;-4.20;89.50
71627;DHT22;59475;52.464;13.590;2023-03-01T00:31:27;-4.21;89.83
71627;DHT22;59475;52.464;13.590;2023-03-01T00:33:54;-4.22;89.52
71627;DHT22;59475;52.464;13.590;2023-03-01T00:36:25;-4.25;89.24
71627;DHT22;59475;52.464;13.590;2023-03-01T00:38:50;-4.28;89.26
71627;DHT22;59475;52.464;13.590;2023-03-01T00:41:17;-4.31;89.06
71627;DHT22;59475;52.464;13.590;2023-03-01T00:43:44;-4.31;89.21
71627;DHT22;59475;52.464;13.590;2023-03-01T00:46:14;-4.29;89.41
71627;DHT22;59475;52.464;13.590;2023-03-01T00:48:40;-4.32;89.19
71627;DHT22;59475;52.464;13.590;2023-03-01T00:51:08;-4.35;89.19
71627;DHT22;59475;52.464;13.590;2023-03-01T00:53:33;-4.41;89.17
71627;DHT22;59475;52.464;13.590;2023-03-01T00:55:59;-4.40;89.59
71627;DHT22;59475;52.464;13.590;2023-03-01T00:58:24;-4.41;89.56
71627;DHT22;59475;52.464;13.590;2023-03-01T01:00:50;-4.42;89.39
71627;DHT22;59475;52.464;13.590;2023-03-01T01:03:16;-4.42;89.17
71627;DHT22;59475;52.464;13.590;2023-03-01T01:05:41;-4.45;89.10
71627;DHT22;59475;52.464;13.590;2023-03-01T01:08:07;-4.48;89.06
71627;DHT22;59475;52.464;13.590;2023-03-01T01:10:34;-4.51;89.37
71627;DHT22;59475;52.464;13.590;2023-03-01T01:12:59;-4.52;89.57
71627;DHT22;59475;52.464;13.590;2023-03-01T01:15:25;-4.55;89.39
71627;DHT22;59475;52.464;13.590;2023-03-01T01:17:50;-4.54;89.24
71627;DHT22;59475;52.464;13.590;2023-03-01T01:20:16;-4.56;89.24
71627;DHT22;59475;52.464;13.590;2023-03-01T01:22:41;-4.59;89.25
71627;DHT22;59475;52.464;13.590;2023-03-01T01:25:07;-4.59;89.73
71627;DHT22;59475;52.464;13.590;2023-03-01T01:27:33;-4.64;90.06
71627;DHT22;59475;52.464;13.590;2023-03-01T01:29:59;-4.65;90.07
71627;DHT22;59475;52.464;13.590;2023-03-01T01:32:24;-4.65;90.14
71627;DHT22;59475;52.464;13.590;2023-03-01T01:34:49;-4.65;89.79
71627;DHT22;59475;52.464;13.590;2023-03-01T01:37:15;-4.65;89.97
71627;DHT22;59475;52.464;13.590;2023-03-01T01:39:40;-4.62;89.57
71627;DHT22;59475;52.464;13.590;2023-03-01T01:42:05;-4.65;89.37
71627;DHT22;59475;52.464;13.590;2023-03-01T01:44:33;-4.64;89.25
71627;DHT22;59475;52.464;13.590;2023-03-01T01:47:02;-4.62;89.07
71627;DHT22;59475;52.464;13.590;2023-03-01T01:49:55;-4.66;89.12
71627;DHT22;59475;52.464;13.590;2023-03-01T01:52:27;-4.65;89.36
71627;DHT22;59475;52.464;13.590;2023-03-01T01:57:27;-4.72;90.18
71627;DHT22;59475;52.464;13.590;2023-03-01T01:59:57;-4.66;90.28
71627;DHT22;59475;52.464;13.590;2023-03-01T02:02:23;-4.62;90.83
71627;DHT22;59475;52.464;13.590;2023-03-01T02:04:53;-4.65;90.66
71627;DHT22;59475;52.464;13.590;2023-03-01T02:07:22;-4.66;90.63
71627;DHT22;59475;52.464;13.590;2023-03-01T02:09:50;-4.69;91.04
71627;DHT22;59475;52.464;13.590;2023-03-01T02:12:18;-4.75;91.18
71627;DHT22;59475;52.464;13.590;2023-03-01T02:14:45;-4.76;91.34
71627;DHT22;59475;52.464;13.590;2023-03-01T02:17:12;-4.76;90.98
71627;DHT22;59475;52.464;13.590;2023-03-01T02:19:47;-4.80;90.81
71627;DHT22;59475;52.464;13.590;2023-03-01T02:22:27;-4.80;90.64
71627;DHT22;59475;52.464;13.590;2023-03-01T02:27:23;-4.87;90.58
71627;DHT22;59475;52.464;13.590;2023-03-01T02:29:51;-4.89;90.41
71627;DHT22;59475;52.464;13.590;2023-03-01T02:32:18;-4.93;90.87
71627;DHT22;59475;52.464;13.590;2023-03-01T02:34:51;-5.00;91.42
71627;DHT22;59475;52.464;13.590;2023-03-01T02:37:17;-5.00;91.42
71627;DHT22;59475;52.464;13.590;2023-03-01T02:39:53;-5.00;91.25
71627;DHT22;59475;52.464;13.590;2023-03-01T02:42:26;-4.97;91.00
71627;DHT22;59475;52.464;13.590;2023-03-01T02:44:53;-4.97;90.75
71627;DHT22;59475;52.464;13.590;2023-03-01T02:47:19;-5.00;90.31
71627;DHT22;59475;52.464;13.590;2023-03-01T02:49:44;-5.03;90.16
71627;DHT22;59475;52.464;13.590;2023-03-01T02:52:37;-5.07;90.27
71627;DHT22;59475;52.464;13.590;2023-03-01T02:55:11;-5.10;90.64
71627;DHT22;59475;52.464;13.590;2023-03-01T02:57:40;-5.13;91.06
71627;DHT22;59475;52.464;13.590;2023-03-01T03:00:11;-5.13;90.84
71627;DHT22;59475;52.464;13.590;2023-03-01T03:02:44;-5.13;90.58
71627;DHT22;59475;52.464;13.590;2023-03-01T03:05:19;-5.13;90.38
71627;DHT22;59475;52.464;13.590;2023-03-01T03:07:46;-5.15;90.12
71627;DHT22;59475;52.464;13.590;2023-03-01T03:10:15;-5.18;90.01
71627;DHT22;59475;52.464;13.590;2023-03-01T03:12:41;-5.18;90.13
71627;DHT22;59475;52.464;13.590;2023-03-01T03:15:08;-5.20;90.32
71627;DHT22;59475;52.464;13.590;2023-03-01T03:17:36;-5.22;90.64
71627;DHT22;59475;52.464;13.590;2023-03-01T03:20:04;-5.24;90.81
71627;DHT22;59475;52.464;13.590;2023-03-01T03:22:30;-5.24;90.85
71627;DHT22;59475;52.464;13.590;2023-03-01T03:24:55;-5.27;90.62
71627;DHT22;59475;52.464;13.590;2023-03-01T03:27:21;-5.30;90.73
71627;DHT22;59475;52.464;13.590;2023-03-01T03:29:46;-5.30;90.97
71627;DHT22;59475;52.464;13.590;2023-03-01T03:32:11;-5.30;91.14
71627;DHT22;59475;52.464;13.590;2023-03-01T03:34:37;-5.28;90.88
71627;DHT22;59475;52.464;13.590;2023-03-01T03:37:02;-5.32;90.57
71627;DHT22;59475;52.464;13.590;2023-03-01T03:39:28;-5.35;90.42
71627;DHT22;59475;52.464;13.590;2023-03-01T03:41:54;-5.34;90.69
71627;DHT22;59475;52.464;13.590;2023-03-01T03:44:20;-5.35;90.84
71627;DHT22;59475;52.464;13.590;2023-03-01T03:46:46;-5.38;90.86
71627;DHT22;59475;52.464;13.590;2023-03-01T03:49:11;-5.41;90.80
71627;DHT22;59475;52.464;13.590;2023-03-01T03:51:37;-5.41;90.62
71627;DHT22;59475;52.464;13.590;2023-03-01T03:54:02;-5.42;90.70
71627;DHT22;59475;52.464;13.590;2023-03-01T03:56:27;-5.41;90.39
71627;DHT22;59475;52.464;13.590;2023-03-01T03:58:53;-5.45;90.22
71627;DHT22;59475;52.464;13.590;2023-03-01T04:01:18;-5.47;90.12
71627;DHT22;59475;52.464;13.590;2023-03-01T04:03:43;-5.49;90.02
71627;DHT22;59475;52.464;13.590;2023-03-01T04:06:13;-5.52;90.39
71627;DHT22;59475;52.464;13.590;2023-03-01T04:08:39;-5.52;90.65
71627;DHT22;59475;52.464;13.590;2023-03-01T04:11:05;-5.52;90.62
71627;DHT22;59475;52.464;13.590;2023-03-01T04:13:49;-5.54;90.51
71627;DHT22;59475;52.464;13.590;2023-03-01T04:16:15;-5.55;90.37
71627;DHT22;59475;52.464;13.590;2023-03-01T04:18:40;-5.59;90.43
71627;DHT22;59475;52.464;13.590;2023-03-01T04:21:06;-5.58;91.05
71627;DHT22;59475;52.464;13.590;2023-03-01T04:23:31;-5.63;91.26
71627;DHT22;59475;52.464;13.590;2023-03-01T04:25:58;-5.63;91.32
71627;DHT22;59475;52.464;13.590;2023-03-01T04:28:38;-5.63;91.30
71627;DHT22;59475;52.464;13.590;2023-03-01T04:31:13;-5.70;91.43
71627;DHT22;59475;52.464;13.590;2023-03-01T04:33:46;-5.78;91.67
71627;DHT22;59475;52.464;13.590;2023-03-01T04:36:12;-5.76;91.68
71627;DHT22;59475;52.464;13.590;2023-03-01T04:38:39;-5.78;91.53
71627;DHT22;59475;52.464;13.590;2023-03-01T04:41:06;-5.73;91.40
71627;DHT22;59475;52.464;13.590;2023-03-01T04:43:32;-5.76;91.24
71627;DHT22;59475;52.464;13.590;2023-03-01T04:46:07;-5.70;91.04
71627;DHT22;59475;52.464;13.590;2023-03-01T04:48:35;-5.72;90.86
71627;DHT22;59475;52.464;13.590;2023-03-01T04:51:02;-5.73;90.66
71627;DHT22;59475;52.464;13.590;2023-03-01T04:53:28;-5.76;90.87
71627;DHT22;59475;52.464;13.590;2023-03-01T04:55:55;-5.75;90.82
71627;DHT22;59475;52.464;13.590;2023-03-01T04:58:24;-5.76;90.85
71627;DHT22;59475;52.464;13.590;2023-03-01T05:00:50;-5.80;90.68
71627;DHT22;59475;52.464;13.590;2023-03-01T05:03:15;-5.79;90.57
71627;DHT22;59475;52.464;13.590;2023-03-01T05:05:44;-5.82;90.56
71627;DHT22;59475;52.464;13.590;2023-03-01T05:08:10;-5.85;90.81
71627;DHT22;59475;52.464;13.590;2023-03-01T05:10:43;-5.85;90.96
71627;DHT22;59475;52.464;13.590;2023-03-01T05:13:09;-5.85;91.14
71627;DHT22;59475;52.464;13.590;2023-03-01T05:15:34;-5.87;91.34
71627;DHT22;59475;52.464;13.590;2023-03-01T05:18:01;-5.85;91.03
71627;DHT22;59475;52.464;13.590;2023-03-01T05:20:28;-5.89;91.03
71627;DHT22;59475;52.464;13.590;2023-03-01T05:22:58;-5.86;91.00
71627;DHT22;59475;52.464;13.590;2023-03-01T05:25:24;-5.90;90.75
71627;DHT22;59475;52.464;13.590;2023-03-01T05:27:50;-5.89;90.65
71627;DHT22;59475;52.464;13.590;2023-03-01T05:30:16;-5.91;91.10
71627;DHT22;59475;52.464;13.590;2023-03-01T05:32:47;-5.96;91.20
71627;DHT22;59475;52.464;13.590;2023-03-01T05:35:15;-5.93;91.10
71627;DHT22;59475;52.464;13.590;2023-03-01T05:37:46;-5.96;90.84
71627;DHT22;59475;52.464;13.590;2023-03-01T05:40:15;-5.96;91.03
71627;DHT22;59475;52.464;13.590;2023-03-01T05:42:52;-5.98;90.98
71627;DHT22;59475;52.464;13.590;2023-03-01T05:45:20;-5.97;90.75
71627;DHT22;59475;52.464;13.590;2023-03-01T05:47:48;-5.98;90.63
71627;DHT22;59475;52.464;13.590;2023-03-01T05:50:16;-6.03;91.19
71627;DHT22;59475;52.464;13.590;2023-03-01T05:52:46;-6.01;90.94
71627;DHT22;59475;52.464;13.590;2023-03-01T05:55:13;-5.98;90.85
71627;DHT22;59475;52.464;13.590;2023-03-01T05:57:39;-6.00;90.79
71627;DHT22;59475;52.464;13.590;2023-03-01T06:00:04;-5.98;90.56
71627;DHT22;59475;52.464;13.590;2023-03-01T06:02:31;-6.00;90.45
71627;DHT22;59475;52.464;13.590;2023-03-01T06:04:56;-5.96;90.45
71627;DHT22;59475;52.464;13.590;2023-03-01T06:07:22;-5.97;90.50
71627;DHT22;59475;52.464;13.590;2023-03-01T06:09:47;-5.94;90.93
71627;DHT22;59475;52.464;13.590;2023-03-01T06:12:14;-5.94;91.08
71627;DHT22;59475;52.464;13.590;2023-03-01T06:14:39;-5.98;91.38
71627;DHT22;59475;52.464;13.590;2023-03-01T06:17:05;-5.94;91.47
71627;DHT22;59475;52.464;13.590;2023-03-01T06:19:30;-5.90;91.50
71627;DHT22;59475;52.464;13.590;2023-03-01T06:21:55;-5.86;91.43
71627;DHT22;59475;52.464;13.590;2023-03-01T06:24:21;-5.80;91.38
71627;DHT22;59475;52.464;13.590;2023-03-01T06:26:46;-5.73;91.42
71627;DHT22;59475;52.464;13.590;2023-03-01T06:29:11;-5.68;91.43
71627;DHT22;59475;52.464;13.590;2023-03-01T06:31:37;-5.56;91.33
71627;DHT22;59475;52.464;13.590;2023-03-01T06:34:02;-5.47;91.38
71627;DHT22;59475;52.464;13.590;2023-03-01T06:36:28;-5.31;91.33
71627;DHT22;59475;52.464;13.590;2023-03-01T06:38:53;-5.07;91.23
71627;DHT22;59475;52.464;13.590;2023-03-01T06:41:18;-4.87;91.11
71627;DHT22;59475;52.464;13.590;2023-03-01T06:43:44;-4.68;90.61
71627;DHT22;59475;52.464;13.590;2023-03-01T06:46:09;-4.54;90.54
71627;DHT22;59475;52.464;13.590;2023-03-01T06:48:35;-4.37;90.42
71627;DHT22;59475;52.464;13.590;2023-03-01T06:51:00;-4.21;89.23
71627;DHT22;59475;52.464;13.590;2023-03-01T06:53:29;-4.13;88.68
71627;DHT22;59475;52.464;13.590;2023-03-01T06:55:58;-3.91;88.44
71627;DHT22;59475;52.464;13.590;2023-03-01T06:58:25;-3.59;89.54
71627;DHT22;59475;52.464;13.590;2023-03-01T07:00:50;-3.27;88.30
71627;DHT22;59475;52.464;13.590;2023-03-01T07:03:16;-3.01;88.12
71627;DHT22;59475;52.464;13.590;2023-03-01T07:05:41;-2.55;87.33
71627;DHT22;59475;52.464;13.590;2023-03-01T07:08:07;-2.10;87.85
71627;DHT22;59475;52.464;13.590;2023-03-01T07:10:32;-1.71;86.66
71627;DHT22;59475;52.464;13.590;2023-03-01T07:12:58;-1.50;85.02
71627;DHT22;59475;52.464;13.590;2023-03-01T07:15:24;-1.35;84.84
71627;DHT22;59475;52.464;13.590;2023-03-01T07:17:50;-1.08;86.52
71627;DHT22;59475;52.464;13.590;2023-03-01T07:20:17;-0.97;83.11
71627;DHT22;59475;52.464;13.590;2023-03-01T07:22:44;-0.82;85.12
71627;DHT22;59475;52.464;13.590;2023-03-01T07:25:10;-0.48;83.02
71627;DHT22;59475;52.464;13.590;2023-03-01T07:27:35;-0.17;82.71
71627;DHT22;59475;52.464;13.590;2023-03-01T07:30:01;0.04;82.68
71627;DHT22;59475;52.464;13.590;2023-03-01T07:32:26;0.38;81.84
71627;DHT22;59475;52.464;13.590;2023-03-01T07:34:51;0.68;80.01
71627;DHT22;59475;52.464;13.590;2023-03-01T07:37:17;0.84;78.70
71627;DHT22;59475;52.464;13.590;2023-03-01T07:39:42;1.05;81.89
71627;DHT22;59475;52.464;13.590;2023-03-01T07:42:08;1.34;77.00
71627;DHT22;59475;52.464;13.590;2023-03-01T07:44:33;1.69;74.72
71627;DHT22;59475;52.464;13.590;2023-03-01T07:47:03;1.99;72.86
71627;DHT22;59475;52.464;13.590;2023-03-01T07:49:28;2.24;73.17
71627;DHT22;59475;52.464;13.590;2023-03-01T07:51:54;2.53;71.21
71627;DHT22;59475;52.464;13.590;2023-03-01T07:54:19;2.83;73.63
71627;DHT22;59475;52.464;13.590;2023-03-01T07:56:44;2.96;72.84
71627;DHT22;59475;52.464;13.590;2023-03-01T07:59:10;3.06;70.67
71627;DHT22;59475;52.464;13.590;2023-03-01T08:01:43;3.26;70.77
71627;DHT22;59475;52.464;13.590;2023-03-01T08:04:09;3.55;69.42
71627;DHT22;59475;52.464;13.590;2023-03-01T08:06:35;3.69;67.33
71627;DHT22;59475;52.464;13.590;2023-03-01T08:09:01;3.94;67.06
71627;DHT22;59475;52.464;13.590;2023-03-01T08:11:26;4.27;68.14
71627;DHT22;59475;52.464;13.590;2023-03-01T08:13:53;4.22;66.00
71627;DHT22;59475;52.464;13.590;2023-03-01T08:16:19;4.14;66.72
71627;DHT22;59475;52.464;13.590;2023-03-01T08:18:44;4.17;66.22
71627;DHT22;59475;52.464;13.590;2023-03-01T08:21:15;3.94;66.13
71627;DHT22;59475;52.464;13.590;2023-03-01T08:23:41;3.82;67.07
71627;DHT22;59475;52.464;13.590;2023-03-01T08:26:10;3.90;66.83
71627;DHT22;59475;52.464;13.590;2023-03-01T08:28:36;3.99;66.73
71627;DHT22;59475;52.464;13.590;2023-03-01T08:31:02;4.27;66.75
71627;DHT22;59475;52.464;13.590;2023-03-01T08:33:27;4.59;64.84
71627;DHT22;59475;52.464;13.590;2023-03-01T08:36:02;5.09;65.26
71627;DHT22;59475;52.464;13.590;2023-03-01T08:38:27;5.34;62.02
71627;DHT22;59475;52.464;13.590;2023-03-01T08:40:52;5.35;61.08
71627;DHT22;59475;52.464;13.590;2023-03-01T08:43:18;5.48;61.26
71627;DHT22;59475;52.464;13.590;2023-03-01T08:45:44;5.72;61.70
71627;DHT22;59475;52.464;13.590;2023-03-01T08:48:10;6.06;60.44
71627;DHT22;59475;52.464;13.590;2023-03-01T08:50:35;6.45;59.61
71627;DHT22;59475;52.464;13.590;2023-03-01T08:53:00;6.79;57.96
71627;DHT22;59475;52.464;13.590;2023-03-01T08:55:26;7.06;54.62
71627;DHT22;59475;52.464;13.590;2023-03-01T08:57:51;7.54;55.31
71627;DHT22;59475;52.464;13.590;2023-03-01T09:00:17;7.23;52.71
71627;DHT22;59475;52.464;13.590;2023-03-01T09:02:42;7.20;53.51
71627;DHT22;59475;52.464;13.590;2023-03-01T09:05:08;6.86;52.41
71627;DHT22;59475;52.464;13.590;2023-03-01T09:07:33;6.79;52.47
71627;DHT22;59475;52.464;13.590;2023-03-01T09:09:59;6.63;53.63
71627;DHT22;59475;52.464;13.590;2023-03-01T09:12:24;6.58;51.73
71627;DHT22;59475;52.464;13.590;2023-03-01T09:14:50;6.79;52.62
71627;DHT22;59475;52.464;13.590;2023-03-01T09:17:15;7.20;53.30
71627;DHT22;59475;52.464;13.590;2023-03-01T09:19:41;7.16;51.27
71627;DHT22;59475;52.464;13.590;2023-03-01T09:22:06;7.32;50.38
71627;DHT22;59475;52.464;13.590;2023-03-01T09:24:31;7.65;50.40
71627;DHT22;59475;52.464;13.590;2023-03-01T09:26:57;7.76;48.23
71627;DHT22;59475;52.464;13.590;2023-03-01T09:29:23;7.78;48.66
71627;DHT22;59475;52.464;13.590;2023-03-01T09:31:48;8.40;49.23
71627;DHT22;59475;52.464;13.590;2023-03-01T09:34:14;8.20;46.74
71627;DHT22;59475;52.464;13.590;2023-03-01T09:36:41;8.45;47.83
71627;DHT22;59475;52.464;13.590;2023-03-01T09:39:06;8.99;46.12
71627;DHT22;59475;52.464;13.590;2023-03-01T09:41:42;9.57;45.73
71627;DHT22;59475;52.464;13.590;2023-03-01T09:46:45;9.41;42.93
71627;DHT22;59475;52.464;13.590;2023-03-01T09:49:17;9.93;44.10
71627;DHT22;59475;52.464;13.590;2023-03-01T09:51:55;10.49;42.70
71627;DHT22;59475;52.464;13.590;2023-03-01T09:54:21;10.26;40.22
71627;DHT22;59475;52.464;13.590;2023-03-01T09:56:57;8.93;41.82
71627;DHT22;59475;52.464;13.590;2023-03-01T09:59:41;8.58;44.31
71627;DHT22;59475;52.464;13.590;2023-03-01T10:05:18;8.64;43.02
71627;DHT22;59475;52.464;13.590;2023-03-01T10:10:26;8.98;44.13
71627;DHT22;59475;52.464;13.590;2023-03-01T10:12:53;9.70;42.71
71627;DHT22;59475;52.464;13.590;2023-03-01T10:15:25;10.03;42.08
71627;DHT22;59475;52.464;13.590;2023-03-01T10:18:01;10.28;40.90
71627;DHT22;59475;52.464;13.590;2023-03-01T10:20:36;9.73;39.98
71627;DHT22;59475;52.464;13.590;2023-03-01T10:23:08;8.65;41.21
71627;DHT22;59475;52.464;13.590;2023-03-01T10:30:47;9.40;41.98
71627;DHT22;59475;52.464;13.590;2023-03-01T10:33:35;9.46;42.04
71627;DHT22;59475;52.464;13.590;2023-03-01T10:36:02;9.68;42.35
71627;DHT22;59475;52.464;13.590;2023-03-01T10:38:31;8.96;40.27
71627;DHT22;59475;52.464;13.590;2023-03-01T10:41:11;8.29;42.58
71627;DHT22;59475;52.464;13.590;2023-03-01T10:43:50;8.14;41.25
71627;DHT22;59475;52.464;13.590;2023-03-01T10:46:29;8.09;43.27
71627;DHT22;59475;52.464;13.590;2023-03-01T10:49:19;8.06;42.55
71627;DHT22;59475;52.464;13.590;2023-03-01T10:51:47;8.50;42.61
71627;DHT22;59475;52.464;13.590;2023-03-01T10:54:30;8.57;42.38
71627;DHT22;59475;52.464;13.590;2023-03-01T10:56:59;8.29;43.68
71627;DHT22;59475;52.464;13.590;2023-03-01T10:59:31;8.64;43.66
71627;DHT22;59475;52.464;13.590;2023-03-01T11:05:00;9.93;40.87
71627;DHT22;59475;52.464;13.590;2023-03-01T11:07:27;10.28;39.98
71627;DHT22;59475;52.464;13.590;2023-03-01T11:09:53;10.30;39.39
71627;DHT22;59475;52.464;13.590;2023-03-01T11:12:19;10.24;40.19
71627;DHT22;59475;52.464;13.590;2023-03-01T11:14:47;10.47;39.99
71627;DHT22;59475;52.464;13.590;2023-03-01T11:17:19;10.51;38.58
71627;DHT22;59475;52.464;13.590;2023-03-01T11:20:25;9.64;40.64
71627;DHT22;59475;52.464;13.590;2023-03-01T11:22:58;9.12;40.78
71627;DHT22;59475;52.464;13.590;2023-03-01T11:25:33;8.69;40.82
71627;DHT22;59475;52.464;13.590;2023-03-01T11:28:02;8.26;42.66
71627;DHT22;59475;52.464;13.590;2023-03-01T11:30:39;7.99;42.77
71627;DHT22;59475;52.464;13.590;2023-03-01T11:33:47;7.82;43.02
71627;DHT22;59475;52.464;13.590;2023-03-01T11:36:44;7.99;42.86
71627;DHT22;59475;52.464;13.590;2023-03-01T11:42:22;8.38;40.65
71627;DHT22;59475;52.464;13.590;2023-03-01T11:44:55;8.58;39.48
71627;DHT22;59475;52.464;13.590;2023-03-01T11:50:47;8.89;39.30
71627;DHT22;59475;52.464;13.590;2023-03-01T11:56:41;8.55;41.24
71627;DHT22;59475;52.464;13.590;2023-03-01T12:07:24;8.54;39.53
71627;DHT22;59475;52.464;13.590;2023-03-01T12:12:37;8.99;40.07
71627;DHT22;59475;52.464;13.590;2023-03-01T12:15:34;8.88;39.71
71627;DHT22;59475;52.464;13.590;2023-03-01T12:21:05;8.05;40.66
71627;DHT22;59475;52.464;13.590;2023-03-01T12:26:34;8.12;40.51
71627;DHT22;59475;52.464;13.590;2023-03-01T12:37:29;8.33;40.56
71627;DHT22;59475;52.464;13.590;2023-03-01T12:46:04;8.14;40.28
71627;DHT22;59475;52.464;13.590;2023-03-01T12:51:15;8.09;41.37
71627;DHT22;59475;52.464;13.590;2023-03-01T12:53:46;7.97;40.67
71627;DHT22;59475;52.464;13.590;2023-03-01T12:56:15;7.90;40.23
71627;DHT22;59475;52.464;13.590;2023-03-01T13:06:25;7.79;36.81
71627;DHT22;59475;52.464;13.590;2023-03-01T13:11:47;7.52;38.57
71627;DHT22;59475;52.464;13.590;2023-03-01T13:16:48;7.71;39.09
71627;DHT22;59475;52.464;13.590;2023-03-01T13:19:27;7.64;36.74
71627;DHT22;59475;52.464;13.590;2023-03-01T13:21:54;7.65;37.66
71627;DHT22;59475;52.464;13.590;2023-03-01T13:24:37;7.65;37.64
71627;DHT22;59475;52.464;13.590;2023-03-01T13:29:47;7.65;38.15
71627;DHT22;59475;52.464;13.590;2023-03-01T13:34:46;7.55;38.33
71627;DHT22;59475;52.464;13.590;2023-03-01T13:37:36;7.67;38.17
71627;DHT22;59475;52.464;13.590;2023-03-01T13:42:50;7.75;38.86
71627;DHT22;59475;52.464;13.590;2023-03-01T13:47:56;7.59;39.72
71627;DHT22;59475;52.464;13.590;2023-03-01T13:50:25;7.54;39.53
71627;DHT22;59475;52.464;13.590;2023-03-01T13:52:55;7.46;38.74
71627;DHT22;59475;52.464;13.590;2023-03-01T13:55:48;7.38;38.61
71627;DHT22;59475;52.464;13.590;2023-03-01T13:58:31;7.38;38.64
71627;DHT22;59475;52.464;13.590;2023-03-01T14:01:02;7.43;38.70
71627;DHT22;59475;52.464;13.590;2023-03-01T14:03:30;7.41;37.86
71627;DHT22;59475;52.464;13.590;2023-03-01T14:06:04;7.41;37.12
71627;DHT22;59475;52.464;13.590;2023-03-01T14:08:35;7.52;36.69
71627;DHT22;59475;52.464;13.590;2023-03-01T14:19:40;7.55;38.78
71627;DHT22;59475;52.464;13.590;2023-03-01T14:24:55;7.50;39.63
71627;DHT22;59475;52.464;13.590;2023-03-01T14:27:21;7.59;39.51
71627;DHT22;59475;52.464;13.590;2023-03-01T14:29:58;7.62;40.18
71627;DHT22;59475;52.464;13.590;2023-03-01T14:34:51;7.62;40.66
71627;DHT22;59475;52.464;13.590;2023-03-01T14:37:21;7.65;40.55
71627;DHT22;59475;52.464;13.590;2023-03-01T14:39:47;7.64;41.66
71627;DHT22;59475;52.464;13.590;2023-03-01T14:42:13;7.61;41.74
71627;DHT22;59475;52.464;13.590;2023-03-01T14:44:51;7.61;41.74
71627;DHT22;59475;52.464;13.590;2023-03-01T14:47:25;7.61;42.22
71627;DHT22;59475;52.464;13.590;2023-03-01T14:49:58;7.67;41.60
71627;DHT22;59475;52.464;13.590;2023-03-01T14:52:35;7.61;42.39
71627;DHT22;59475;52.464;13.590;2023-03-01T14:55:04;7.65;43.03
71627;DHT22;59475;52.464;13.590;2023-03-01T14:57:30;7.75;42.89
71627;DHT22;59475;52.464;13.590;2023-03-01T15:00:02;7.76;42.38
71627;DHT22;59475;52.464;13.590;2023-03-01T15:02:31;7.72;41.49
71627;DHT22;59475;52.464;13.590;2023-03-01T15:04:59;7.67;42.16
71627;DHT22;59475;52.464;13.590;2023-03-01T15:07:29;7.62;41.96
71627;DHT22;59475;52.464;13.590;2023-03-01T15:09:55;7.67;41.60
71627;DHT22;59475;52.464;13.590;2023-03-01T15:14:53;7.67;42.01
71627;DHT22;59475;52.464;13.590;2023-03-01T15:17:32;7.64;41.35
71627;DHT22;59475;52.464;13.590;2023-03-01T15:19:58;7.57;42.02
71627;DHT22;59475;52.464;13.590;2023-03-01T15:22:26;7.55;42.24
71627;DHT22;59475;52.464;13.590;2023-03-01T15:24:52;7.52;42.18
71627;DHT22;59475;52.464;13.590;2023-03-01T15:27:20;7.51;41.38
71627;DHT22;59475;52.464;13.590;2023-03-01T15:29:52;7.44;41.91
71627;DHT22;59475;52.464;13.590;2023-03-01T15:32:30;7.34;42.05
71627;DHT22;59475;52.464;13.590;2023-03-01T15:35:00;7.34;41.92
71627;DHT22;59475;52.464;13.590;2023-03-01T15:37:44;7.32;41.66
71627;DHT22;59475;52.464;13.590;2023-03-01T15:40:25;7.35;42.28
71627;DHT22;59475;52.464;13.590;2023-03-01T15:42:57;7.37;42.06
71627;DHT22;59475;52.464;13.590;2023-03-01T15:45:26;7.32;42.05
71627;DHT22;59475;52.464;13.590;2023-03-01T15:47:56;7.24;42.76
71627;DHT22;59475;52.464;13.590;2023-03-01T15:50:29;7.20;43.34
71627;DHT22;59475;52.464;13.590;2023-03-01T15:52:57;7.16;43.87
71627;DHT22;59475;52.464;13.590;2023-03-01T15:55:28;7.09;44.71
71627;DHT22;59475;52.464;13.590;2023-03-01T16:00:25;7.12;46.25
71627;DHT22;59475;52.464;13.590;2023-03-01T16:02:51;7.07;46.66
71627;DHT22;59475;52.464;13.590;2023-03-01T16:05:19;7.03;47.55
71627;DHT22;59475;52.464;13.590;2023-03-01T16:07:45;7.02;47.56
71627;DHT22;59475;52.464;13.590;2023-03-01T16:10:10;6.96;48.15
71627;DHT22;59475;52.464;13.590;2023-03-01T16:12:35;6.89;49.01
71627;DHT22;59475;52.464;13.590;2023-03-01T16:15:01;6.81;49.60
71627;DHT22;59475;52.464;13.590;2023-03-01T16:17:27;6.69;50.55
71627;DHT22;59475;52.464;13.590;2023-03-01T16:19:53;6.63;51.10
71627;DHT22;59475;52.464;13.590;2023-03-01T16:22:18;6.48;52.08
71627;DHT22;59475;52.464;13.590;2023-03-01T16:24:49;6.33;52.65
71627;DHT22;59475;52.464;13.590;2023-03-01T16:27:15;6.16;52.67
71627;DHT22;59475;52.464;13.590;2023-03-01T16:29:41;5.95;53.50
71627;DHT22;59475;52.464;13.590;2023-03-01T16:32:06;5.82;54.20
71627;DHT22;59475;52.464;13.590;2023-03-01T16:34:32;5.63;54.90
71627;DHT22;59475;52.464;13.590;2023-03-01T16:36:57;5.45;55.45
71627;DHT22;59475;52.464;13.590;2023-03-01T16:39:24;5.27;56.57
71627;DHT22;59475;52.464;13.590;2023-03-01T16:41:49;5.09;57.21
71627;DHT22;59475;52.464;13.590;2023-03-01T16:44:14;4.93;57.86
71627;DHT22;59475;52.464;13.590;2023-03-01T16:46:41;4.75;58.66
71627;DHT22;59475;52.464;13.590;2023-03-01T16:49:07;4.55;59.40
71627;DHT22;59475;52.464;13.590;2023-03-01T16:51:32;4.37;60.24
71627;DHT22;59475;52.464;13.590;2023-03-01T16:53:59;4.24;60.51
71627;DHT22;59475;52.464;13.590;2023-03-01T16:56:25;4.10;60.93
71627;DHT22;59475;52.464;13.590;2023-03-01T16:58:50;3.97;61.45
71627;DHT22;59475;52.464;13.590;2023-03-01T17:01:18;3.83;62.16
71627;DHT22;59475;52.464;13.590;2023-03-01T17:03:45;3.69;62.60
71627;DHT22;59475;52.464;13.590;2023-03-01T17:06:14;3.55;63.25
71627;DHT22;59475;52.464;13.590;2023-03-01T17:08:40;3.42;63.40
71627;DHT22;59475;52.464;13.590;2023-03-01T17:11:17;3.31;63.57
71627;DHT22;59475;52.464;13.590;2023-03-01T17:13:43;3.17;64.22
71627;DHT22;59475;52.464;13.590;2023-03-01T17:16:11;3.01;65.06
71627;DHT22;59475;52.464;13.590;2023-03-01T17:18:37;2.89;65.08
71627;DHT22;59475;52.464;13.590;2023-03-01T17:21:03;2.80;65.69